Time;durP1;ratioP1;P1;durP2;ratioP2;P2;SDS_P1;SDS_P2;PMS_P1;PMS_P2;Temp;Humidity;BMP_temperature;BMP_pressure;BME280_temperature;BME280_humidity;BME280_pressure;Samples;Min_cycle;Max_cycle;Signal;HPM_P1;HPM_P2
2021/12/14 00:00:27;;;;;;;53.63;9.23;;;;;;;7.94;100.00;99031.16;5142236;28;20626;-63
2021/12/14 00:02:54;;;;;;;26.80;7.43;;;;;;;7.94;100.00;99039.13;5140235;28;20614;-64
2021/12/14 00:05:25;;;;;;;40.00;8.53;;;;;;;7.97;100.00;99036.03;5138617;28;20634;-64
2021/12/14 00:07:55;;;;;;;43.37;7.50;;;;;;;7.94;100.00;99041.78;5139651;28;20635;-63
2021/12/14 00:10:44;;;;;;;26.70;8.07;;;;;;;7.81;100.00;99034.72;5142152;28;21468;-62
2021/12/14 00:13:21;;;;;;;35.30;8.17;;;;;;;7.69;100.00;99038.31;5131460;27;21223;-62
2021/12/14 00:15:49;;;;;;;46.50;9.27;;;;;;;7.67;100.00;99043.84;5142835;27;20632;-62
2021/12/14 00:18:16;;;;;;;63.30;9.87;;;;;;;7.72;100.00;99036.03;5145888;27;20633;-64
2021/12/14 00:20:49;;;;;;;48.07;7.97;;;;;;;7.87;100.00;99030.38;5140591;27;20591;-63
2021/12/14 00:26:03;;;;;;;29.73;7.87;;;;;;;7.70;100.00;99035.44;5144877;27;20588;-62
2021/12/14 00:28:33;;;;;;;55.17;9.60;;;;;;;7.63;100.00;99031.19;5145555;27;20704;-63
2021/12/14 00:31:09;;;;;;;37.93;7.60;;;;;;;7.64;100.00;99028.34;5143231;27;20595;-63
2021/12/14 00:33:40;;;;;;;30.23;8.47;;;;;;;7.56;100.00;99021.44;5141954;27;20669;-62
2021/12/14 00:36:09;;;;;;;75.30;10.63;;;;;;;7.46;100.00;99021.09;5145097;27;20607;-64
2021/12/14 00:38:36;;;;;;;50.77;7.27;;;;;;;7.10;100.00;99020.94;5145512;27;21368;-63
2021/12/14 00:41:07;;;;;;;36.70;7.83;;;;;;;6.85;100.00;99012.06;5142368;27;21330;-62
2021/12/14 00:43:35;;;;;;;23.77;6.50;;;;;;;6.79;100.00;99007.63;5141902;27;20604;-63
2021/12/14 00:46:03;;;;;;;33.10;8.53;;;;;;;6.79;100.00;99018.22;5144285;27;21389;-64
2021/12/14 00:48:30;;;;;;;49.20;8.90;;;;;;;6.72;100.00;99012.94;5143924;27;20647;-63
2021/12/14 00:50:59;;;;;;;44.03;7.37;;;;;;;6.71;100.00;99007.88;5139761;27;20625;-64
2021/12/14 00:53:27;;;;;;;42.77;8.10;;;;;;;6.72;100.00;99017.44;5141722;27;20629;-64
2021/12/14 00:55:57;;;;;;;41.77;7.43;;;;;;;6.62;100.00;99020.56;5142833;27;20625;-64
2021/12/14 00:58:24;;;;;;;60.30;8.17;;;;;;;6.75;100.00;99033.75;5145013;27;20627;-63
2021/12/14 01:00:57;;;;;;;45.40;8.63;;;;;;;7.01;100.00;99033.66;5143848;27;20613;-63
2021/12/14 01:03:26;;;;;;;45.10;6.77;;;;;;;6.95;100.00;99033.69;5141594;27;20592;-64
2021/12/14 01:05:54;;;;;;;43.47;8.57;;;;;;;7.01;100.00;99031.00;5142660;27;20612;-62
2021/12/14 01:08:25;;;;;;;24.23;7.50;;;;;;;7.24;100.00;99033.09;5126794;27;20649;-63
2021/12/14 01:10:56;;;;;;;54.37;8.67;;;;;;;6.98;100.00;99027.94;5143374;27;20615;-62
2021/12/14 01:13:26;;;;;;;33.83;7.90;;;;;;;6.96;100.00;99024.69;5141317;27;20624;-63
2021/12/14 01:16:12;;;;;;;66.20;9.50;;;;;;;7.07;100.00;99030.16;5142337;27;20735;-63
2021/12/14 01:18:48;;;;;;;40.77;6.93;;;;;;;7.16;100.00;99046.66;5140575;27;20639;-62
2021/12/14 01:21:28;;;;;;;35.77;6.27;;;;;;;7.18;100.00;99028.63;5133453;27;20630;-62
2021/12/14 01:24:03;;;;;;;80.67;11.10;;;;;;;7.23;100.00;99041.28;5142145;27;20608;-62
2021/12/14 01:26:33;;;;;;;50.10;9.63;;;;;;;7.04;100.00;99040.38;5144382;27;20630;-63
2021/12/14 01:29:01;;;;;;;32.57;7.60;;;;;;;6.94;100.00;99040.00;5142142;27;20619;-62
2021/12/14 01:31:35;;;;;;;33.00;8.83;;;;;;;6.44;100.00;99041.63;5140898;27;20604;-62
2021/12/14 01:34:06;;;;;;;41.73;7.70;;;;;;;6.35;100.00;99040.25;5143101;27;20627;-62
2021/12/14 01:36:41;;;;;;;43.23;9.00;;;;;;;6.21;100.00;99036.81;5144213;27;20656;-62
2021/12/14 01:39:34;;;;;;;59.97;9.70;;;;;;;6.12;100.00;99043.38;5140799;27;20592;-62
2021/12/14 01:42:04;;;;;;;44.70;7.63;;;;;;;6.29;100.00;99044.53;5142932;27;20668;-62
2021/12/14 01:44:34;;;;;;;58.47;8.83;;;;;;;6.44;100.00;99036.34;5143924;27;20608;-62
2021/12/14 01:47:06;;;;;;;48.83;9.00;;;;;;;6.49;100.00;99044.50;5141394;27;20652;-62
2021/12/14 01:49:34;;;;;;;66.50;10.27;;;;;;;6.68;100.00;99045.47;5134797;27;20629;-63
2021/12/14 01:52:04;;;;;;;53.63;7.97;;;;;;;6.59;100.00;99034.25;5142466;27;20616;-62
2021/12/14 01:54:35;;;;;;;39.10;8.47;;;;;;;6.50;100.00;99041.63;5143702;27;20610;-62
2021/12/14 01:57:05;;;;;;;43.63;8.50;;;;;;;6.33;100.00;99048.41;5141175;27;20723;-62
2021/12/14 01:59:36;;;;;;;60.47;9.33;;;;;;;6.36;100.00;99044.53;5140214;27;21187;-62
2021/12/14 02:02:20;;;;;;;53.53;9.93;;;;;;;6.26;100.00;99039.66;5142784;27;20650;-64
2021/12/14 02:04:51;;;;;;;68.87;9.83;;;;;;;6.13;100.00;99039.66;5143041;27;20634;-63
2021/12/14 02:07:20;;;;;;;51.83;8.53;;;;;;;6.25;100.00;99043.31;5140031;27;20652;-62
2021/12/14 02:09:52;;;;;;;44.73;8.20;;;;;;;6.11;100.00;99047.03;5140252;27;20624;-61
2021/12/14 02:12:22;;;;;;;64.60;8.90;;;;;;;5.83;100.00;99041.09;5143520;27;20628;-62
2021/12/14 02:14:49;;;;;;;93.43;11.80;;;;;;;5.99;100.00;99038.06;5142587;27;20696;-63
2021/12/14 02:17:22;;;;;;;70.33;10.13;;;;;;;6.04;100.00;99032.13;5139874;27;20618;-62
2021/12/14 02:19:51;;;;;;;38.73;7.37;;;;;;;6.22;100.00;99040.28;5134941;27;20605;-62
2021/12/14 02:22:19;;;;;;;78.40;11.60;;;;;;;6.13;100.00;99039.66;5143233;27;20592;-62
2021/12/14 02:24:50;;;;;;;117.70;14.10;;;;;;;6.14;100.00;99035.19;5142919;27;20631;-62
2021/12/14 02:27:17;;;;;;;60.57;10.70;;;;;;;5.88;100.00;99036.06;5139640;27;20663;-62
2021/12/14 02:29:48;;;;;;;70.80;12.50;;;;;;;5.61;100.00;99034.38;5139670;27;20638;-63
2021/12/14 02:32:19;;;;;;;42.80;9.87;;;;;;;5.73;100.00;99028.25;5143173;27;20600;-62
2021/12/14 02:34:48;;;;;;;51.33;10.83;;;;;;;5.85;100.00;99025.81;5142739;27;20607;-62
2021/12/14 02:37:16;;;;;;;55.47;11.77;;;;;;;5.89;100.00;99021.75;5138852;27;20592;-62
2021/12/14 02:40:00;;;;;;;67.03;12.30;;;;;;;5.87;100.00;99026.47;5139499;27;20593;-62
2021/12/14 02:42:29;;;;;;;43.97;9.57;;;;;;;5.85;100.00;99017.84;5133340;27;20615;-62
2021/12/14 02:44:58;;;;;;;45.50;10.50;;;;;;;5.89;100.00;99022.59;5140897;27;20599;-63
2021/12/14 02:47:25;;;;;;;40.30;11.33;;;;;;;5.95;100.00;99020.94;5142833;27;20651;-62
2021/12/14 02:49:52;;;;;;;40.63;9.40;;;;;;;6.14;100.00;99027.22;5131260;27;20600;-62
2021/12/14 02:52:27;;;;;;;23.87;9.10;;;;;;;5.92;100.00;99018.69;5142827;27;20603;-62
2021/12/14 02:55:01;;;;;;;50.47;9.40;;;;;;;5.78;100.00;99011.75;5141100;27;20619;-62
2021/12/14 02:57:30;;;;;;;43.30;10.40;;;;;;;5.91;100.00;99025.03;5139037;27;20626;-62
2021/12/14 02:59:57;;;;;;;84.67;10.67;;;;;;;5.79;100.00;99016.03;5140666;27;20592;-62
2021/12/14 03:02:29;;;;;;;34.73;6.43;;;;;;;5.71;100.00;99013.59;5142717;27;20611;-62
2021/12/14 03:04:59;;;;;;;46.67;8.57;;;;;;;5.76;100.00;99014.59;5140734;27;20612;-61
2021/12/14 03:07:30;;;;;;;65.60;8.53;;;;;;;5.74;100.00;99018.47;5138923;27;20632;-63
2021/12/14 03:10:18;;;;;;;59.10;9.33;;;;;;;5.72;100.00;99015.22;5140421;27;20620;-62
2021/12/14 03:12:48;;;;;;;36.97;7.03;;;;;;;5.89;100.00;99019.94;5142362;27;20598;-62
2021/12/14 03:15:19;;;;;;;60.43;7.43;;;;;;;6.10;100.00;99013.56;5138712;27;20642;-62
2021/12/14 03:17:48;;;;;;;40.57;8.40;;;;;;;6.26;100.00;99018.44;5138963;28;20677;-62
2021/12/14 03:20:19;;;;;;;26.90;7.03;;;;;;;6.51;100.00;99014.06;5136883;28;20623;-62
2021/12/14 03:22:49;;;;;;;97.87;10.00;;;;;;;6.48;100.00;99019.78;5142096;28;20721;-62
2021/12/14 03:25:20;;;;;;;32.23;7.17;;;;;;;6.39;100.00;99017.59;5138926;28;21182;-63
2021/12/14 03:27:49;;;;;;;53.27;7.40;;;;;;;6.27;100.00;99020.06;5138976;28;20631;-63
2021/12/14 03:30:28;;;;;;;26.53;5.30;;;;;;;6.06;100.00;99022.16;5142322;28;20621;-62
2021/12/14 03:32:58;;;;;;;42.87;6.23;;;;;;;6.12;100.00;99024.81;5140433;28;20628;-62
2021/12/14 03:35:36;;;;;;;40.93;8.17;;;;;;;6.20;100.00;99021.91;5138696;28;20609;-62
2021/12/14 03:38:08;;;;;;;53.93;8.20;;;;;;;6.22;100.00;99017.22;5141133;28;20600;-62
2021/12/14 03:40:37;;;;;;;44.20;7.53;;;;;;;6.20;100.00;99008.66;5142199;28;20628;-62
2021/12/14 03:43:04;;;;;;;34.47;6.77;;;;;;;6.16;100.00;99007.44;5139440;28;20595;-61
2021/12/14 03:45:31;;;;;;;58.03;8.43;;;;;;;6.30;100.00;99005.56;5138626;28;20592;-63
2021/12/14 03:48:01;;;;;;;23.67;7.20;;;;;;;6.35;100.00;99003.09;5142793;27;20657;-63
2021/12/14 03:50:31;;;;;;;33.97;7.03;;;;;;;6.26;100.00;98986.59;5140702;27;20607;-62
2021/12/14 03:52:57;;;;;;;24.37;7.60;;;;;;;6.33;100.00;98997.19;5144238;27;20627;-62
2021/12/14 03:55:34;;;;;;;45.43;7.77;;;;;;;6.34;100.00;99004.13;5142708;27;20611;-62
2021/12/14 03:58:02;;;;;;;58.70;7.30;;;;;;;6.28;100.00;98995.16;5144376;27;20677;-62
2021/12/14 04:00:33;;;;;;;41.80;6.23;;;;;;;6.32;100.00;99000.84;5145979;27;20689;-62
2021/12/14 04:03:05;;;;;;;46.13;6.70;;;;;;;6.32;100.00;99004.31;5143573;27;20656;-63
2021/12/14 04:05:33;;;;;;;33.80;7.37;;;;;;;6.35;100.00;99011.88;5142384;27;20599;-63
2021/12/14 04:08:01;;;;;;;64.33;8.77;;;;;;;6.46;100.00;99005.94;5143927;27;20635;-63
2021/12/14 04:10:31;;;;;;;54.63;8.80;;;;;;;6.48;100.00;99016.31;5145544;27;20615;-62
2021/12/14 04:12:59;;;;;;;60.50;8.73;;;;;;;6.23;100.00;99018.84;5143655;27;20599;-62
2021/12/14 04:15:27;;;;;;;31.93;7.70;;;;;;;6.16;100.00;99012.72;5142199;27;20682;-63
2021/12/14 04:17:54;;;;;;;44.07;8.97;;;;;;;6.15;100.00;99000.50;5143447;27;20600;-63
2021/12/14 04:20:24;;;;;;;69.27;9.97;;;;;;;6.21;100.00;99007.63;5139825;27;20649;-62
2021/12/14 04:22:51;;;;;;;35.87;8.10;;;;;;;6.22;100.00;99009.25;5144595;27;20628;-63
2021/12/14 04:25:22;;;;;;;57.37;9.07;;;;;;;6.00;100.00;99001.78;5142095;27;20706;-63
2021/12/14 04:27:50;;;;;;;51.67;8.27;;;;;;;5.90;100.00;99003.00;5142329;27;20632;-62
2021/12/14 04:30:21;;;;;;;28.03;6.23;;;;;;;5.89;100.00;98993.41;5145681;27;20611;-62
2021/12/14 04:32:51;;;;;;;80.57;10.03;;;;;;;5.90;100.00;98996.88;5144855;27;20615;-62
2021/12/14 04:35:19;;;;;;;39.80;8.30;;;;;;;5.83;100.00;98986.25;5141848;27;20604;-62
2021/12/14 04:37:49;;;;;;;57.83;8.07;;;;;;;5.92;100.00;98978.94;5141725;27;20616;-62
2021/12/14 04:40:35;;;;;;;41.67;7.67;;;;;;;5.91;100.00;98978.09;5145215;27;20592;-62
2021/12/14 04:54:06;;;;;;;44.37;6.50;;;;;;;6.17;100.00;98987.84;5144356;27;20587;-62
2021/12/14 04:56:37;;;;;;;64.67;9.03;;;;;;;6.13;100.00;98983.97;5144759;27;20599;-62
2021/12/14 04:59:08;;;;;;;33.63;7.10;;;;;;;5.89;100.00;98984.66;5141328;27;20602;-62
2021/12/14 05:01:38;;;;;;;38.23;7.80;;;;;;;5.94;100.00;98984.84;5141061;27;20604;-62
2021/12/14 05:04:10;;;;;;;25.10;7.00;;;;;;;6.03;100.00;98990.75;5144040;27;20626;-62
2021/12/14 05:06:47;;;;;;;90.60;9.50;;;;;;;5.98;100.00;98978.09;5144901;27;20595;-62
2021/12/14 05:09:22;;;;;;;44.50;8.40;;;;;;;6.03;100.00;98986.28;5132824;27;20650;-62
2021/12/14 05:11:51;;;;;;;70.80;8.70;;;;;;;6.04;100.00;98984.41;5141382;27;20644;-62
2021/12/14 05:14:17;;;;;;;67.63;7.83;;;;;;;5.95;100.00;98983.81;5144450;27;20610;-62
2021/12/14 05:16:44;;;;;;;104.93;10.07;;;;;;;5.92;100.00;98981.56;5144185;27;20600;-62
2021/12/14 05:19:14;;;;;;;33.53;7.53;;;;;;;5.82;100.00;98981.16;5126704;27;20642;-63
2021/12/14 05:21:45;;;;;;;42.83;8.03;;;;;;;5.84;100.00;98976.47;5140909;27;20596;-62
2021/12/14 05:24:14;;;;;;;59.53;8.83;;;;;;;5.82;100.00;98970.53;5132369;27;20596;-62
2021/12/14 05:26:42;;;;;;;82.47;10.10;;;;;;;5.75;100.00;98977.72;5140643;27;20626;-62
2021/12/14 05:29:10;;;;;;;91.80;9.10;;;;;;;5.85;100.00;98964.81;5143652;27;20695;-62
2021/12/14 05:31:43;;;;;;;89.37;9.80;;;;;;;6.01;100.00;98964.44;5143960;27;20635;-62
2021/12/14 05:34:11;;;;;;;42.93;8.60;;;;;;;6.08;100.00;98970.53;5143880;27;20595;-62
2021/12/14 05:36:40;;;;;;;80.83;10.30;;;;;;;6.45;100.00;98966.31;5143923;27;20633;-62
2021/12/14 05:39:21;;;;;;;68.17;9.20;;;;;;;6.45;100.00;98975.09;5140430;27;20600;-62
2021/12/14 05:44:36;;;;;;;44.20;6.50;;;;;;;6.01;100.00;98972.38;5143683;27;20630;-62
2021/12/14 05:47:10;;;;;;;46.50;8.10;;;;;;;5.87;100.00;98976.91;5140826;27;20611;-63
2021/12/14 05:49:40;;;;;;;79.67;8.73;;;;;;;5.83;100.00;98973.00;5134222;27;20683;-62
2021/12/14 05:52:10;;;;;;;51.07;7.63;;;;;;;5.84;100.00;98972.00;5143151;27;20624;-62
2021/12/14 05:54:38;;;;;;;79.23;9.93;;;;;;;5.61;100.00;98953.06;5143903;27;20607;-63
2021/12/14 05:57:07;;;;;;;53.03;7.07;;;;;;;5.40;100.00;98954.09;5140538;27;20604;-63
2021/12/14 05:59:35;;;;;;;72.47;9.10;;;;;;;5.54;100.00;98954.09;5140076;27;20608;-62
2021/12/14 06:02:06;;;;;;;55.93;8.10;;;;;;;5.51;100.00;98950.00;5142229;27;20615;-63
2021/12/14 06:04:36;;;;;;;56.97;8.77;;;;;;;5.32;100.00;98948.19;5143244;27;20637;-63
2021/12/14 06:07:08;;;;;;;54.60;9.00;;;;;;;5.50;100.00;98942.28;5140606;27;20595;-63
2021/12/14 06:09:37;;;;;;;54.97;9.70;;;;;;;5.47;100.00;98938.19;5139731;27;20648;-63
2021/12/14 06:12:09;;;;;;;61.40;9.47;;;;;;;5.63;100.00;98943.06;5141531;27;20600;-63
2021/12/14 06:14:42;;;;;;;57.03;7.63;;;;;;;5.59;100.00;98941.84;5143182;27;20595;-62
2021/12/14 06:17:10;;;;;;;105.10;10.97;;;;;;;5.60;100.00;98942.66;5139444;27;20612;-62
2021/12/14 06:19:39;;;;;;;71.27;8.80;;;;;;;6.14;100.00;98937.06;5133760;27;20814;-62
2021/12/14 06:22:10;;;;;;;73.37;8.83;;;;;;;6.34;100.00;98945.78;5142202;27;20608;-62
2021/12/14 06:24:38;;;;;;;105.50;11.07;;;;;;;6.56;100.00;98941.75;5142569;27;20615;-63
2021/12/14 06:27:09;;;;;;;42.00;7.07;;;;;;;6.72;100.00;98948.41;5139945;27;20634;-62
2021/12/14 06:29:39;;;;;;;77.23;7.07;;;;;;;6.80;100.00;98938.38;5139202;27;20659;-62
2021/12/14 06:32:06;;;;;;;21.33;4.43;;;;;;;6.84;100.00;98936.91;5142185;27;20596;-62
2021/12/14 06:34:33;;;;;;;59.40;6.20;;;;;;;6.98;100.00;98937.66;5142711;27;20623;-62
2021/12/14 06:37:54;;;;;;;39.23;5.03;;;;;;;7.04;100.00;98934.13;5140473;27;21461;-62
2021/12/14 06:40:23;;;;;;;37.13;4.93;;;;;;;7.04;100.00;98926.97;5132228;27;20615;-63
2021/12/14 06:42:53;;;;;;;48.53;5.20;;;;;;;7.01;100.00;98926.59;5139806;27;20665;-62
2021/12/14 06:45:26;;;;;;;65.37;5.67;;;;;;;7.08;100.00;98943.31;5142616;27;20626;-63
2021/12/14 06:47:57;;;;;;;85.80;7.33;;;;;;;7.15;100.00;98937.94;5141357;27;20599;-62
2021/12/14 06:50:31;;;;;;;56.87;6.20;;;;;;;7.19;100.00;98947.91;5133008;27;20655;-62
2021/12/14 06:53:02;;;;;;;59.37;5.73;;;;;;;7.22;100.00;98942.16;5140621;27;20611;-62
2021/12/14 06:55:29;;;;;;;43.73;6.07;;;;;;;7.24;100.00;98941.97;5139101;27;20620;-63
2021/12/14 06:58:07;;;;;;;52.37;5.90;;;;;;;7.27;100.00;98944.97;5140250;27;20616;-63
2021/12/14 07:00:35;;;;;;;98.83;8.63;;;;;;;7.28;100.00;98951.13;5142306;27;20603;-63
2021/12/14 07:03:02;;;;;;;76.43;7.70;;;;;;;7.31;100.00;98943.53;5139540;27;20600;-63
2021/12/14 07:05:30;;;;;;;85.83;8.70;;;;;;;7.33;100.00;98960.09;5138558;27;20654;-62
2021/12/14 07:07:59;;;;;;;81.23;7.63;;;;;;;7.29;100.00;98955.41;5139877;27;20657;-62
2021/12/14 07:10:26;;;;;;;31.83;5.10;;;;;;;7.31;100.00;98948.03;5142004;27;20704;-63
2021/12/14 07:12:53;;;;;;;91.77;8.60;;;;;;;7.34;100.00;98942.28;5140619;27;20604;-62
2021/12/14 07:15:23;;;;;;;52.57;5.60;;;;;;;7.35;100.00;98950.03;5138471;27;20612;-62
2021/12/14 07:18:00;;;;;;;35.30;5.83;;;;;;;7.34;100.00;98948.41;5139034;28;20611;-62
2021/12/14 07:20:30;;;;;;;37.47;5.90;;;;;;;7.37;100.00;98942.66;5136366;28;20622;-62
2021/12/14 07:23:01;;;;;;;58.43;5.77;;;;;;;7.36;100.00;98951.69;5139660;28;20588;-62
2021/12/14 07:25:31;;;;;;;75.87;7.90;;;;;;;7.37;100.00;98947.97;5138182;28;20604;-62
2021/12/14 07:27:59;;;;;;;40.20;6.03;;;;;;;7.34;100.00;98964.34;5139919;28;21249;-62
2021/12/14 07:30:31;;;;;;;55.00;7.20;;;;;;;7.37;100.00;98955.13;5141907;28;20643;-62
2021/12/14 07:33:02;;;;;;;97.30;8.37;;;;;;;7.29;100.00;98969.50;5139823;28;20636;-62
2021/12/14 07:35:37;;;;;;;42.67;6.53;;;;;;;7.34;100.00;98967.00;5138561;28;20603;-63
2021/12/14 07:38:20;;;;;;;48.87;6.57;;;;;;;7.32;100.00;98977.06;5140990;28;20619;-63
2021/12/14 07:40:51;;;;;;;90.67;9.17;;;;;;;7.37;100.00;98969.22;5141438;28;20607;-63
2021/12/14 07:43:23;;;;;;;35.10;5.57;;;;;;;7.32;100.00;98971.75;5138419;28;20600;-63
2021/12/14 07:45:51;;;;;;;77.97;12.00;;;;;;;7.35;100.00;98965.16;5138855;28;20635;-67
2021/12/14 07:48:19;;;;;;;39.07;5.73;;;;;;;7.36;100.00;98946.38;5142218;28;20611;-62
2021/12/14 07:50:50;;;;;;;83.30;8.13;;;;;;;7.29;100.00;98961.53;5135899;28;20635;-62
2021/12/14 07:53:33;;;;;;;71.40;8.43;;;;;;;7.33;100.00;98962.75;5138339;28;20597;-63
2021/12/14 07:56:00;;;;;;;49.27;7.73;;;;;;;7.34;100.00;98952.91;5140587;28;20596;-63
2021/12/14 07:58:35;;;;;;;153.63;14.50;;;;;;;7.30;100.00;98957.03;5141500;28;20639;-63
2021/12/14 08:01:02;;;;;;;78.77;9.17;;;;;;;7.16;100.00;98943.03;5138918;28;20671;-63
2021/12/14 08:03:33;;;;;;;64.70;7.90;;;;;;;7.19;100.00;98957.72;5137925;28;20608;-63
2021/12/14 08:06:01;;;;;;;87.23;8.60;;;;;;;7.16;100.00;98951.00;5139901;28;20596;-63
2021/12/14 08:08:41;;;;;;;71.60;7.40;;;;;;;7.24;100.00;98958.69;5141458;28;20607;-63
2021/12/14 08:11:29;;;;;;;102.87;10.93;;;;;;;7.35;100.00;98965.16;5138129;28;20622;-62
2021/12/14 08:13:57;;;;;;;46.97;7.37;;;;;;;7.31;100.00;98962.13;5139187;28;20596;-63
2021/12/14 08:16:24;;;;;;;82.37;9.03;;;;;;;7.30;100.00;98955.22;5141321;28;20682;-62
2021/12/14 08:18:51;;;;;;;74.70;7.70;;;;;;;7.14;100.00;98954.91;5134673;28;20629;-63
2021/12/14 08:21:22;;;;;;;78.93;7.33;;;;;;;7.18;100.00;98961.44;5137973;28;20617;-62
2021/12/14 08:23:58;;;;;;;52.60;5.87;;;;;;;7.15;100.00;98964.53;5138328;28;20633;-62
2021/12/14 08:26:28;;;;;;;46.57;6.13;;;;;;;7.11;100.00;98964.13;5141473;28;20606;-63
2021/12/14 08:28:57;;;;;;;54.07;6.07;;;;;;;7.06;100.00;98961.28;5139906;28;20608;-63
2021/12/14 08:31:30;;;;;;;30.87;4.17;;;;;;;7.11;100.00;98958.00;5138031;28;21147;-63
2021/12/14 08:33:59;;;;;;;49.37;5.37;;;;;;;7.22;100.00;98960.78;5140161;27;20616;-62
2021/12/14 08:36:35;;;;;;;41.13;5.20;;;;;;;7.02;100.00;98960.91;5145144;27;20651;-62
2021/12/14 08:39:06;;;;;;;62.87;5.13;;;;;;;7.07;100.00;98946.97;5142495;27;20606;-63
2021/12/14 08:41:33;;;;;;;54.87;6.27;;;;;;;7.13;100.00;98950.63;5141382;27;20608;-62
2021/12/14 08:44:09;;;;;;;43.80;5.03;;;;;;;6.98;100.00;98958.91;5143277;27;20616;-62
2021/12/14 08:46:36;;;;;;;37.17;4.03;;;;;;;7.02;100.00;98962.75;5144580;27;20614;-62
2021/12/14 08:49:07;;;;;;;41.03;4.27;;;;;;;7.07;100.00;98958.44;5136345;27;20593;-62
2021/12/14 08:51:37;;;;;;;43.57;4.67;;;;;;;7.13;100.00;98961.25;5141244;27;21133;-63
2021/12/14 08:54:09;;;;;;;82.77;6.50;;;;;;;7.00;100.00;98952.34;5143541;27;20596;-62
2021/12/14 08:56:39;;;;;;;62.80;5.87;;;;;;;7.00;100.00;98967.47;5144514;27;20603;-62
2021/12/14 08:59:07;;;;;;;79.70;6.50;;;;;;;7.16;100.00;98953.66;5141375;27;20596;-62
2021/12/14 09:01:35;;;;;;;49.00;5.20;;;;;;;7.15;100.00;98951.25;5141058;27;20608;-63
2021/12/14 09:04:07;;;;;;;73.60;6.30;;;;;;;7.10;100.00;98957.19;5143322;27;21170;-62
2021/12/14 09:06:38;;;;;;;42.40;4.00;;;;;;;6.80;100.00;98956.16;5144660;27;20611;-62
2021/12/14 09:09:09;;;;;;;59.30;5.00;;;;;;;6.96;100.00;98943.16;5141048;27;20610;-62
2021/12/14 09:11:40;;;;;;;47.10;5.27;;;;;;;6.84;100.00;98946.75;5140821;27;20592;-62
2021/12/14 09:14:13;;;;;;;33.27;4.03;;;;;;;7.00;100.00;98962.97;5143674;27;20599;-62
2021/12/14 09:16:41;;;;;;;57.63;5.43;;;;;;;7.10;100.00;98949.22;5144137;27;20691;-62
2021/12/14 09:19:13;;;;;;;60.57;6.87;;;;;;;6.99;100.00;98963.19;5134932;27;20593;-62
2021/12/14 09:21:43;;;;;;;76.50;6.10;;;;;;;7.00;100.00;98957.66;5140422;27;20626;-62
2021/12/14 09:24:16;;;;;;;50.33;5.40;;;;;;;7.11;100.00;98963.31;5143974;27;20595;-62
2021/12/14 09:26:46;;;;;;;51.10;5.83;;;;;;;7.18;100.00;98962.22;5144100;27;20621;-61
2021/12/14 09:29:17;;;;;;;106.73;8.63;;;;;;;7.19;100.00;98961.19;5132141;27;20620;-62
2021/12/14 09:31:47;;;;;;;58.40;6.07;;;;;;;7.15;100.00;98960.00;5140199;27;21005;-63
2021/12/14 09:34:17;;;;;;;79.33;7.43;;;;;;;7.20;100.00;98959.38;5132164;27;20616;-63
2021/12/14 09:36:45;;;;;;;82.97;7.93;;;;;;;7.38;100.00;98960.25;5140204;27;20604;-62
2021/12/14 09:39:17;;;;;;;43.17;6.10;;;;;;;7.35;100.00;98963.34;5131771;27;20672;-63
2021/12/14 09:41:46;;;;;;;64.07;8.07;;;;;;;7.31;100.00;98962.13;5139932;27;20638;-62
2021/12/14 09:44:16;;;;;;;53.97;6.40;;;;;;;7.32;100.00;98977.06;5132118;27;20613;-63
2021/12/14 09:46:42;;;;;;;44.07;6.10;;;;;;;7.32;100.00;98974.41;5139918;27;20597;-63
2021/12/14 09:49:11;;;;;;;33.13;5.57;;;;;;;7.25;100.00;98981.59;5136805;27;20600;-62
2021/12/14 09:51:41;;;;;;;65.57;9.23;;;;;;;7.39;100.00;98975.16;5139956;27;20588;-63
2021/12/14 09:54:11;;;;;;;36.73;6.43;;;;;;;7.32;100.00;98968.25;5143027;27;20644;-63
2021/12/14 09:56:44;;;;;;;48.47;7.73;;;;;;;7.24;100.00;98963.22;5143137;27;20600;-63
2021/12/14 09:59:12;;;;;;;94.50;9.50;;;;;;;7.33;100.00;98967.25;5131526;27;20612;-62
2021/12/14 10:01:44;;;;;;;55.57;6.80;;;;;;;7.30;100.00;98955.22;5139711;27;20630;-62
2021/12/14 10:04:17;;;;;;;58.70;6.80;;;;;;;7.07;100.00;98941.66;5131098;27;20601;-63
2021/12/14 10:06:44;;;;;;;67.17;7.03;;;;;;;7.09;100.00;98952.88;5139351;27;20630;-62
2021/12/14 10:09:15;;;;;;;46.00;5.57;;;;;;;7.01;100.00;98950.50;5130813;27;20612;-62
2021/12/14 10:12:00;;;;;;;70.10;7.33;;;;;;;7.00;100.00;98938.25;5139691;27;20658;-62
2021/12/14 10:14:33;;;;;;;43.70;5.70;;;;;;;7.07;100.00;98933.72;5133579;27;20606;-63
2021/12/14 10:17:01;;;;;;;52.60;7.40;;;;;;;7.02;100.00;98937.00;5141339;27;20604;-62
2021/12/14 10:19:30;;;;;;;59.87;5.97;;;;;;;6.95;100.00;98922.16;5134030;27;20614;-62
2021/12/14 10:22:01;;;;;;;45.83;5.10;;;;;;;6.76;100.00;98912.47;5140634;27;20612;-63
2021/12/14 10:24:29;;;;;;;83.37;7.20;;;;;;;6.79;100.00;98928.78;5142843;27;20591;-63
2021/12/14 10:27:02;;;;;;;49.77;4.97;;;;;;;6.89;100.00;98928.31;5141127;27;20596;-63
2021/12/14 10:29:29;;;;;;;60.60;6.70;;;;;;;6.96;100.00;98926.44;5139395;27;20596;-65
2021/12/14 10:32:01;;;;;;;22.47;4.80;;;;;;;7.04;100.00;98936.78;5140547;27;20604;-65
2021/12/14 10:34:32;;;;;;;56.60;4.30;;;;;;;8.25;100.00;98940.56;5142698;27;20635;-65
2021/12/14 10:37:07;;;;;;;2266.67;999.90;;;;;;;10.52;100.00;98932.00;5140593;27;20608;-64
2021/12/14 10:42:37;;;;;;;149.17;71.40;;;;;;;11.07;100.00;98943.72;5139024;27;20604;-64
2021/12/14 10:42:52;;;;;;;2258.97;999.90;;;;;;;11.50;100.00;98945.75;5132520;27;20626;-63
2021/12/14 10:45:20;;;;;;;131.73;66.87;;;;;;;11.53;100.00;98939.09;5131558;27;20630;-64
2021/12/14 10:47:46;;;;;;;2266.67;999.90;;;;;;;11.54;100.00;98946.91;5138974;27;20624;-63
2021/12/14 10:50:20;;;;;;;1724.80;906.87;;;;;;;11.86;100.00;98947.13;5136415;27;20688;-64
2021/12/14 10:52:47;;;;;;;1088.27;719.57;;;;;;;12.03;100.00;98961.31;5142043;27;20618;-64
2021/12/14 10:55:17;;;;;;;2266.67;999.90;;;;;;;12.10;100.00;98972.63;5138846;27;20635;-63
2021/12/14 10:57:46;;;;;;;2266.67;999.90;;;;;;;12.30;100.00;98951.50;5138006;27;20616;-63
2021/12/14 11:00:28;;;;;;;265.67;152.27;;;;;;;12.30;100.00;98962.22;5130478;27;20638;-62
2021/12/14 11:03:00;;;;;;;156.23;31.77;;;;;;;11.37;100.00;98968.28;5139903;27;20973;-63
2021/12/14 11:05:28;;;;;;;41.23;16.17;;;;;;;10.59;100.00;98968.19;5142246;27;20680;-63
2021/12/14 11:07:54;;;;;;;50.87;12.87;;;;;;;10.12;100.00;98948.75;5140979;27;20603;-64
2021/12/14 11:10:24;;;;;;;127.57;44.63;;;;;;;9.07;100.00;98945.22;5138322;27;20652;-63
2021/12/14 11:12:59;;;;;;;63.33;22.23;;;;;;;8.78;100.00;98940.72;5121026;28;20596;-64
2021/12/14 11:15:30;;;;;;;372.47;215.07;;;;;;;8.47;100.00;98920.47;5141870;27;20603;-63
2021/12/14 11:18:12;;;;;;;217.37;55.07;;;;;;;8.41;100.00;98910.72;5140066;27;20603;-63
2021/12/14 11:20:46;;;;;;;203.37;94.20;;;;;;;8.42;100.00;98936.28;5134509;28;20613;-64
2021/12/14 11:23:19;;;;;;;74.70;23.30;;;;;;;8.52;100.00;98947.22;5130052;28;20588;-63
2021/12/14 11:26:06;;;;;;;67.50;9.37;;;;;;;8.46;100.00;98936.66;5138265;28;20600;-63
2021/12/14 11:28:40;;;;;;;50.07;8.13;;;;;;;8.35;100.00;98951.53;5141955;28;20629;-63
2021/12/14 11:31:16;;;;;;;41.23;9.03;;;;;;;8.38;100.00;98948.44;5138763;28;20636;-63
2021/12/14 11:33:46;;;;;;;61.47;7.40;;;;;;;8.29;100.00;98941.78;5138524;28;21159;-64
2021/12/14 11:36:17;;;;;;;38.57;3.60;;;;;;;8.17;100.00;98954.16;5130433;28;20592;-64
2021/12/14 11:38:49;;;;;;;35.80;5.43;;;;;;;7.95;100.00;98939.69;5138421;28;20612;-64
2021/12/14 11:41:34;;;;;;;46.03;6.57;;;;;;;7.96;100.00;98935.97;5130457;28;20620;-64
2021/12/14 11:44:07;;;;;;;20.27;2.87;;;;;;;7.64;100.00;98953.06;5140026;28;20638;-63
2021/12/14 11:46:49;;;;;;;57.30;6.17;;;;;;;7.48;100.00;98944.63;5141740;28;20989;-63
2021/12/14 11:49:16;;;;;;;49.13;7.00;;;;;;;7.70;100.00;98944.22;5124612;28;20597;-63
2021/12/14 11:51:43;;;;;;;35.53;7.93;;;;;;;7.84;100.00;98929.75;5138165;28;20671;-63
2021/12/14 11:54:11;;;;;;;35.23;8.13;;;;;;;7.89;100.00;98924.59;5141560;28;20632;-63
2021/12/14 11:56:38;;;;;;;56.87;17.10;;;;;;;7.86;100.00;98923.19;5141674;27;20607;-64